MET'MAP v2.0
soon released !

Expected late october,
this new version will be
more efficient, smarter,
and hosted on a brand new
server x3 powerfull...
...and still free !


Not compatible ?
Try the mobile version !

LOG IN : | Subscribe | Disclaimer | Who is Orbifly ? |
ICAO code :

TAF - LHSN Szolnok Airport - 21 Oct 2020 00:41 UTC - Data Source NOAA   


- Airport Elevation : 322 ft
- No reported NOTAMs.


LHSN - Szolnok Airport

Latest METAR recorded : 2015/08/11 08:15 LHSN 110815Z 08008KT 050V110 CAVOK 30/10 Q1014 NOSIG RMK BLU
TAF TAF LHSN
Valid from the 20 at 21:00 until the 21 at 06:00 UTC


202015Z 2021/2106 16006KT CAVOK

Source NOAA


MET'MAP, your aeronautical weather chart ! - Copyright ORBIFLY December 2007

Programming & Development : Alexandra Zaïnal
Co-Developer : Marc-Olivier Méhu
Technical & hardware support : Manuel Goepfert
Concept & Financing : Baudouin d'Aumeries